createdAt,value
2023-01-31T00:00:35.173Z,23.80
2023-01-31T00:06:49.485Z,24.00
2023-01-31T00:12:59.201Z,23.80
2023-01-31T00:19:12.700Z,23.70
2023-01-31T00:25:22.310Z,23.50
2023-01-31T00:31:32.332Z,23.70
2023-01-31T00:37:45.129Z,24.00
2023-01-31T00:43:53.403Z,23.90
2023-01-31T00:50:06.316Z,23.60
2023-01-31T00:56:24.187Z,23.70
2023-01-31T01:02:33.486Z,24.00
2023-01-31T01:08:45.300Z,23.80
2023-01-31T01:14:58.105Z,23.60
2023-01-31T01:21:15.483Z,23.50
2023-01-31T01:27:25.470Z,23.70
2023-01-31T01:33:35.740Z,24.00
2023-01-31T01:39:44.107Z,23.90
2023-01-31T01:45:53.932Z,23.60
2023-01-31T01:52:06.616Z,23.40
2023-01-31T01:58:20.848Z,23.30
2023-01-31T02:04:31.899Z,23.30
2023-01-31T02:10:43.286Z,23.20
2023-01-31T02:16:56.022Z,23.10
2023-01-31T02:23:21.287Z,22.90
2023-01-31T02:36:02.959Z,22.80
2023-01-31T02:42:14.627Z,22.70
2023-01-31T02:48:27.101Z,22.70
2023-01-31T02:54:56.956Z,22.60
2023-01-31T03:01:14.937Z,22.50
2023-01-31T03:07:28.380Z,22.50
2023-01-31T03:20:14.504Z,22.40
2023-01-31T03:26:22.356Z,22.30
2023-01-31T03:32:33.924Z,22.30
2023-01-31T03:38:45.541Z,22.30
2023-01-31T03:44:59.037Z,22.20
2023-01-31T03:51:08.965Z,22.20
2023-01-31T03:57:19.201Z,22.10
2023-01-31T04:03:34.918Z,22.10
2023-01-31T04:09:45.792Z,22.00
2023-01-31T04:15:55.481Z,22.00
2023-01-31T04:22:09.319Z,22.00
2023-01-31T04:28:25.392Z,21.80
2023-01-31T04:34:36.619Z,21.90
2023-01-31T04:40:46.632Z,21.80
2023-01-31T04:46:55.649Z,21.80
2023-01-31T04:53:10.217Z,21.70
2023-01-31T04:59:22.089Z,21.60
2023-01-31T05:05:35.966Z,21.60
2023-01-31T05:11:43.769Z,21.50
2023-01-31T05:17:59.971Z,21.50
2023-01-31T05:24:12.299Z,21.40
2023-01-31T05:30:25.136Z,21.40
2023-01-31T05:42:47.288Z,22.00
2023-01-31T05:48:57.628Z,21.80
2023-01-31T05:55:07.245Z,21.60
2023-01-31T06:01:17.689Z,21.60
2023-01-31T06:07:28.548Z,21.50
2023-01-31T06:13:36.066Z,21.60
2023-01-31T06:19:45.635Z,21.90
2023-01-31T06:25:56.036Z,21.80
2023-01-31T06:32:08.544Z,21.60
2023-01-31T06:38:18.018Z,21.50
2023-01-31T06:44:29.695Z,21.60
2023-01-31T06:50:42.301Z,21.90
2023-01-31T06:56:50.252Z,21.80
2023-01-31T07:03:05.110Z,21.50
2023-01-31T07:09:17.075Z,21.50
2023-01-31T07:15:28.815Z,21.70
2023-01-31T07:21:42.960Z,21.90
2023-01-31T07:27:52.811Z,21.70
2023-01-31T07:34:07.459Z,21.50
2023-01-31T07:40:18.691Z,21.50
2023-01-31T07:46:31.197Z,21.80
2023-01-31T07:52:39.565Z,21.80
2023-01-31T07:58:51.659Z,21.60
2023-01-31T08:04:59.592Z,21.50
2023-01-31T08:11:12.532Z,21.80
2023-01-31T08:17:25.275Z,21.90
2023-01-31T08:23:33.026Z,21.60
2023-01-31T08:29:47.520Z,21.40
2023-01-31T08:35:58.912Z,21.60
2023-01-31T08:42:08.504Z,21.90
2023-01-31T08:54:36.605Z,21.60
2023-01-31T09:00:47.342Z,21.50
2023-01-31T09:06:58.558Z,21.70
2023-01-31T09:13:07.467Z,21.90
2023-01-31T09:19:17.408Z,21.80
2023-01-31T09:25:41.271Z,21.60
2023-01-31T09:31:36.183Z,21.60
2023-01-31T09:37:50.522Z,21.80
2023-01-31T09:43:58.669Z,21.90
2023-01-31T09:50:11.606Z,21.60
2023-01-31T09:56:25.484Z,21.50
2023-01-31T10:02:50.632Z,21.70
2023-01-31T10:09:04.536Z,22.00
2023-01-31T10:15:16.663Z,21.80
2023-01-31T10:21:28.055Z,21.60
2023-01-31T10:27:43.826Z,21.50
2023-01-31T10:33:57.697Z,21.80
2023-01-31T10:40:13.305Z,22.00
2023-01-31T10:46:26.151Z,21.70
2023-01-31T10:52:47.546Z,21.50
2023-01-31T10:59:03.545Z,21.50
2023-01-31T11:05:18.254Z,21.80
2023-01-31T11:11:29.867Z,21.90
2023-01-31T11:17:40.934Z,21.70
2023-01-31T11:23:53.642Z,21.50
2023-01-31T11:30:06.842Z,21.60
2023-01-31T11:36:17.616Z,21.90
2023-01-31T11:42:26.971Z,21.90
2023-01-31T11:48:37.599Z,21.60
2023-01-31T11:54:48.527Z,21.50
2023-01-31T12:01:05.505Z,21.60
2023-01-31T12:07:24.974Z,21.90
2023-01-31T12:13:35.601Z,22.20
2023-01-31T12:19:49.348Z,22.40
2023-01-31T12:26:11.920Z,22.50
2023-01-31T12:32:37.442Z,22.70
2023-01-31T12:39:01.440Z,22.90
2023-01-31T12:45:17.331Z,23.10
2023-01-31T12:51:38.126Z,23.30
2023-01-31T12:57:51.305Z,23.10
2023-01-31T13:04:11.225Z,22.80
2023-01-31T13:10:34.636Z,22.90
2023-01-31T13:16:47.348Z,23.10
2023-01-31T13:22:59.452Z,23.40
2023-01-31T13:29:14.679Z,23.20
2023-01-31T13:35:24.267Z,23.00
2023-01-31T13:41:36.969Z,23.10
2023-01-31T13:47:50.019Z,23.30
2023-01-31T13:54:06.896Z,23.70
2023-01-31T14:00:31.453Z,24.30
2023-01-31T14:07:30.727Z,24.70
2023-01-31T14:13:45.725Z,24.60
2023-01-31T14:20:09.582Z,24.70
2023-01-31T14:26:36.968Z,24.40
2023-01-31T14:32:49.641Z,24.00
2023-01-31T14:39:40.016Z,23.80
2023-01-31T14:46:08.859Z,23.90
2023-01-31T14:52:27.192Z,24.10
2023-01-31T14:58:39.948Z,24.10
2023-01-31T15:04:53.786Z,23.90
2023-01-31T15:11:05.522Z,23.70
2023-01-31T15:17:33.606Z,23.80
2023-01-31T15:23:30.848Z,24.20
2023-01-31T15:29:47.335Z,24.50
2023-01-31T15:35:56.971Z,24.50
2023-01-31T15:42:18.145Z,24.40
2023-01-31T15:48:30.173Z,24.60
2023-01-31T15:54:38.393Z,24.50
2023-01-31T16:00:49.873Z,24.60
2023-01-31T16:07:00.342Z,24.90
2023-01-31T16:13:13.046Z,25.10
2023-01-31T16:19:24.183Z,25.00
2023-01-31T16:25:36.208Z,24.90
2023-01-31T16:31:52.049Z,24.70
2023-01-31T16:38:10.829Z,24.70
2023-01-31T16:44:22.344Z,24.90
2023-01-31T16:50:42.952Z,24.90
2023-01-31T16:56:47.121Z,24.90
2023-01-31T17:03:03.174Z,24.70
2023-01-31T17:09:19.553Z,24.70
2023-01-31T17:15:29.960Z,24.90
2023-01-31T17:21:41.569Z,25.10
2023-01-31T17:27:51.947Z,25.00
2023-01-31T17:34:02.859Z,24.80
2023-01-31T17:40:14.002Z,24.70
2023-01-31T17:46:24.828Z,24.70
2023-01-31T17:52:34.432Z,24.80
2023-01-31T17:58:47.173Z,24.90
2023-01-31T18:04:59.523Z,24.80
2023-01-31T18:11:12.173Z,24.50
2023-01-31T18:17:22.312Z,24.30
2023-01-31T18:23:35.807Z,24.40
2023-01-31T18:29:44.717Z,24.70
2023-01-31T18:36:01.703Z,24.90
2023-01-31T18:42:14.660Z,24.70
2023-01-31T18:48:24.606Z,24.60
2023-01-31T18:54:37.556Z,24.40
2023-01-31T19:00:49.996Z,24.40
2023-01-31T19:06:58.312Z,24.30
2023-01-31T19:13:06.480Z,24.40
2023-01-31T19:19:23.012Z,24.60
2023-01-31T19:25:35.053Z,24.60
2023-01-31T19:31:47.789Z,24.40
2023-01-31T19:37:55.599Z,24.20
2023-01-31T19:44:06.947Z,24.10
2023-01-31T19:50:19.997Z,24.30
2023-01-31T19:56:30.188Z,24.50
2023-01-31T20:02:46.727Z,24.60
2023-01-31T20:08:52.310Z,24.40
2023-01-31T20:15:02.984Z,24.20
2023-01-31T20:21:12.030Z,24.10
2023-01-31T20:27:24.670Z,24.10
2023-01-31T20:33:36.161Z,24.30
2023-01-31T20:39:49.052Z,24.20
2023-01-31T20:45:58.446Z,23.90
2023-01-31T20:52:10.975Z,23.80
2023-01-31T20:58:20.724Z,24.10
2023-01-31T21:04:32.800Z,24.30
2023-01-31T21:10:41.324Z,24.10
2023-01-31T21:16:54.281Z,23.90
2023-01-31T21:23:05.583Z,23.80
2023-01-31T21:29:17.023Z,23.90
2023-01-31T21:35:28.528Z,24.10
2023-01-31T21:41:59.021Z,24.20
2023-01-31T21:48:26.529Z,24.00
2023-01-31T21:54:39.052Z,23.80
2023-01-31T22:00:57.525Z,23.80
2023-01-31T22:07:11.185Z,23.90
2023-01-31T22:13:19.807Z,24.10
2023-01-31T22:19:29.740Z,23.90
2023-01-31T22:25:40.431Z,23.80
2023-01-31T22:31:52.894Z,23.70
2023-01-31T22:38:04.828Z,23.90
2023-01-31T22:44:15.458Z,24.10
2023-01-31T22:50:26.940Z,24.00
2023-01-31T22:56:36.643Z,23.80
2023-01-31T23:02:49.995Z,23.60
2023-01-31T23:09:03.928Z,23.60
2023-01-31T23:15:14.324Z,23.70
2023-01-31T23:21:23.188Z,23.90
2023-01-31T23:27:36.114Z,23.90
2023-01-31T23:33:47.110Z,23.70
2023-01-31T23:39:55.514Z,23.60
2023-01-31T23:46:04.878Z,23.70
2023-01-31T23:52:16.389Z,23.90
2023-01-31T23:58:27.847Z,24.20
